createdAt,value
2018-06-28T00:00:07.241Z,22.30
2018-06-28T00:02:36.028Z,22.30
2018-06-28T00:05:05.112Z,22.30
2018-06-28T00:07:33.962Z,22.10
2018-06-28T00:10:02.956Z,22.20
2018-06-28T00:12:31.817Z,22.20
2018-06-28T00:15:00.652Z,22.10
2018-06-28T00:17:29.502Z,22.10
2018-06-28T00:19:58.384Z,22.20
2018-06-28T00:22:27.392Z,22.00
2018-06-28T00:24:56.217Z,22.00
2018-06-28T00:27:25.201Z,21.90
2018-06-28T00:29:54.068Z,21.90
2018-06-28T00:32:23.088Z,21.80
2018-06-28T00:34:51.929Z,21.80
2018-06-28T00:37:20.803Z,21.80
2018-06-28T00:39:49.548Z,21.70
2018-06-28T00:42:18.358Z,21.70
2018-06-28T00:44:47.184Z,21.80
2018-06-28T00:47:16.028Z,21.70
2018-06-28T00:49:45.414Z,21.70
2018-06-28T00:52:14.301Z,21.70
2018-06-28T00:54:43.493Z,21.60
2018-06-28T00:57:12.498Z,21.50
2018-06-28T00:59:41.465Z,21.50
2018-06-28T01:02:10.276Z,21.50
2018-06-28T01:04:39.103Z,21.40
2018-06-28T01:07:08.176Z,21.40
2018-06-28T01:09:37.065Z,21.40
2018-06-28T01:12:06.062Z,21.40
2018-06-28T01:14:35.014Z,21.30
2018-06-28T01:17:04.191Z,21.30
2018-06-28T01:19:33.021Z,21.30
2018-06-28T01:22:01.844Z,21.30
2018-06-28T01:24:30.676Z,21.30
2018-06-28T01:26:59.710Z,21.20
2018-06-28T01:29:28.585Z,21.20
2018-06-28T01:31:57.490Z,21.20
2018-06-28T01:34:26.344Z,21.20
2018-06-28T01:36:55.187Z,21.20
2018-06-28T01:39:24.060Z,21.20
2018-06-28T01:42:04.381Z,21.20
2018-06-28T01:44:33.200Z,21.30
2018-06-28T01:47:02.218Z,21.30
2018-06-28T01:49:31.128Z,21.30
2018-06-28T01:51:59.940Z,21.20
2018-06-28T01:54:28.769Z,21.20
2018-06-28T01:56:57.757Z,21.00
2018-06-28T01:59:26.685Z,21.00
2018-06-28T02:01:55.712Z,21.10
2018-06-28T02:04:24.544Z,21.00
2018-06-28T02:06:53.393Z,20.90
2018-06-28T02:09:22.180Z,21.00
2018-06-28T02:11:51.188Z,20.90
2018-06-28T02:14:20.009Z,21.00
2018-06-28T02:16:48.943Z,21.00
2018-06-28T02:19:17.754Z,21.00
2018-06-28T02:21:46.536Z,20.90
2018-06-28T02:24:15.392Z,20.90
2018-06-28T02:26:44.203Z,20.80
2018-06-28T02:29:13.041Z,20.80
2018-06-28T02:31:41.860Z,20.80
2018-06-28T02:34:10.724Z,20.80
2018-06-28T02:36:39.594Z,20.80
2018-06-28T02:39:09.082Z,20.80
2018-06-28T02:41:37.876Z,20.70
2018-06-28T02:44:07.537Z,20.70
2018-06-28T02:46:36.357Z,20.60
2018-06-28T02:49:05.314Z,20.60
2018-06-28T02:51:34.457Z,20.60
2018-06-28T02:54:03.260Z,20.60
2018-06-28T02:59:00.632Z,20.50
2018-06-28T03:01:29.922Z,20.50
2018-06-28T03:03:58.816Z,20.50
2018-06-28T03:06:27.609Z,20.40
2018-06-28T03:08:56.412Z,20.40
2018-06-28T03:11:25.221Z,20.50
2018-06-28T03:13:54.021Z,20.40
2018-06-28T03:16:22.880Z,20.40
2018-06-28T03:18:51.671Z,20.40
2018-06-28T03:21:20.509Z,20.30
2018-06-28T03:23:49.368Z,20.30
2018-06-28T03:26:18.201Z,20.30
2018-06-28T03:28:47.071Z,20.20
2018-06-28T03:31:15.890Z,20.20
2018-06-28T03:36:13.241Z,20.10
2018-06-28T03:38:42.524Z,20.10
2018-06-28T03:41:11.370Z,20.00
2018-06-28T03:43:40.320Z,20.00
2018-06-28T03:46:09.126Z,19.90
2018-06-28T03:48:37.952Z,19.90
2018-06-28T03:51:06.818Z,19.80
2018-06-28T03:53:35.821Z,19.80
2018-06-28T03:56:04.657Z,19.80
2018-06-28T03:58:33.531Z,19.90
2018-06-28T05:27:40.852Z,19.80
2018-06-28T05:30:09.831Z,21.00
2018-06-28T05:32:38.649Z,21.10
2018-06-28T05:35:07.609Z,21.10
2018-06-28T05:37:36.465Z,21.10
2018-06-28T05:40:05.409Z,21.10
2018-06-28T05:42:34.177Z,21.20
2018-06-28T05:45:03.130Z,21.30
2018-06-28T05:47:31.995Z,21.30
2018-06-28T05:50:00.852Z,21.40
2018-06-28T05:52:29.673Z,21.60
2018-06-28T05:54:58.817Z,21.60
2018-06-28T05:57:27.636Z,21.80
2018-06-28T05:59:56.552Z,21.80
2018-06-28T06:02:25.358Z,21.90
2018-06-28T06:04:54.285Z,22.00
2018-06-28T06:07:23.142Z,22.00
2018-06-28T06:09:52.193Z,22.00
2018-06-28T06:12:20.993Z,22.10
2018-06-28T06:14:49.805Z,22.20
2018-06-28T06:17:18.620Z,22.20
2018-06-28T06:19:47.465Z,22.30
2018-06-28T06:22:16.342Z,22.40
2018-06-28T06:24:45.212Z,22.40
2018-06-28T06:27:14.101Z,22.40
2018-06-28T06:29:43.020Z,22.50
2018-06-28T06:32:11.882Z,22.50
2018-06-28T06:34:40.688Z,22.60
2018-06-28T06:37:09.536Z,22.50
2018-06-28T06:39:38.360Z,22.40
2018-06-28T06:42:07.180Z,22.50
2018-06-28T06:44:35.989Z,22.40
2018-06-28T06:47:04.870Z,22.50
2018-06-28T06:49:33.681Z,22.60
2018-06-28T06:52:02.507Z,22.70
2018-06-28T06:54:31.325Z,22.80
2018-06-28T06:57:00.260Z,22.80
2018-06-28T06:59:29.337Z,23.00
2018-06-28T07:01:58.185Z,23.10
2018-06-28T07:04:27.215Z,23.10
2018-06-28T07:06:56.032Z,23.30
2018-06-28T07:11:53.593Z,23.50
2018-06-28T07:14:22.468Z,23.40
2018-06-28T07:16:51.312Z,23.50
2018-06-28T07:19:20.269Z,23.50
2018-06-28T07:21:49.197Z,23.60
2018-06-28T08:03:56.884Z,23.70
2018-06-28T08:08:54.294Z,24.50
2018-06-28T08:11:23.106Z,24.40
2018-06-28T08:13:51.935Z,24.40
2018-06-28T08:16:21.122Z,24.60
2018-06-28T08:18:49.940Z,24.60
2018-06-28T08:21:18.798Z,24.80
2018-06-28T08:23:47.665Z,24.80
2018-06-28T08:26:16.465Z,24.70
2018-06-28T08:28:45.298Z,24.90
2018-06-28T08:31:14.305Z,24.90
2018-06-28T08:33:43.392Z,25.00
2018-06-28T08:36:12.417Z,24.80
2018-06-28T08:38:41.237Z,24.80
2018-06-28T08:41:10.319Z,24.90
2018-06-28T08:43:39.112Z,24.90
2018-06-28T08:46:08.085Z,24.90
2018-06-28T08:48:36.916Z,25.10
2018-06-28T08:51:06.150Z,25.30
2018-06-28T08:53:34.960Z,25.30
2018-06-28T08:56:04.214Z,25.20
2018-06-28T08:58:33.048Z,25.30
2018-06-28T09:03:30.481Z,25.30
2018-06-28T09:05:59.456Z,25.20
2018-06-28T09:08:28.261Z,25.10
2018-06-28T09:10:57.084Z,25.20
2018-06-28T09:13:25.896Z,25.20
2018-06-28T09:15:54.728Z,25.10
2018-06-28T09:18:23.799Z,25.20
2018-06-28T09:20:52.749Z,25.30
2018-06-28T09:23:21.605Z,25.50
2018-06-28T09:25:50.528Z,25.50
2018-06-28T09:28:19.443Z,25.60
2018-06-28T09:30:48.267Z,25.60
2018-06-28T09:33:17.158Z,25.70
2018-06-28T09:35:46.156Z,25.70
2018-06-28T09:38:14.982Z,25.50
2018-06-28T09:40:43.919Z,25.30
2018-06-28T09:43:12.788Z,25.10
2018-06-28T09:45:41.987Z,25.20
2018-06-28T09:48:11.052Z,25.20
2018-06-28T09:50:39.889Z,25.30
2018-06-28T09:53:08.791Z,25.50
2018-06-28T09:55:37.990Z,25.50
2018-06-28T09:58:06.833Z,25.60
2018-06-28T10:00:40.980Z,25.60
2018-06-28T10:03:09.803Z,25.70
2018-06-28T10:05:38.736Z,25.70
2018-06-28T10:08:08.072Z,25.70
2018-06-28T10:10:36.873Z,25.60
2018-06-28T10:13:05.860Z,25.70
2018-06-28T10:15:34.857Z,25.80
2018-06-28T10:18:03.730Z,25.90
2018-06-28T10:20:32.617Z,25.90
2018-06-28T10:23:01.451Z,25.90
2018-06-28T10:25:30.413Z,25.90
2018-06-28T10:27:59.307Z,26.00
2018-06-28T10:30:28.209Z,25.90
2018-06-28T10:32:57.095Z,25.80
2018-06-28T10:35:25.954Z,25.80
2018-06-28T10:37:54.798Z,25.90
2018-06-28T10:40:23.692Z,25.80
2018-06-28T10:42:53.733Z,25.90
2018-06-28T10:45:22.552Z,26.00
2018-06-28T10:47:51.784Z,25.90
2018-06-28T10:50:20.697Z,25.90
2018-06-28T10:52:49.536Z,26.00
2018-06-28T10:55:18.356Z,25.90
2018-06-28T10:57:48.397Z,25.90
2018-06-28T11:00:17.531Z,25.80
2018-06-28T11:02:46.447Z,25.90
2018-06-28T11:05:16.099Z,25.90
2018-06-28T11:07:44.958Z,25.90
2018-06-28T11:10:13.984Z,25.90
2018-06-28T11:12:42.879Z,26.10
2018-06-28T11:15:12.759Z,26.10
2018-06-28T11:17:41.610Z,26.00
2018-06-28T11:20:10.639Z,26.00
2018-06-28T11:22:39.544Z,26.00
2018-06-28T11:25:08.562Z,26.00
2018-06-28T11:27:37.357Z,26.00
2018-06-28T11:30:06.216Z,26.20
2018-06-28T11:35:03.644Z,26.20
2018-06-28T11:37:33.027Z,26.20
2018-06-28T11:40:01.888Z,26.10
2018-06-28T11:42:30.716Z,26.00
2018-06-28T11:44:59.577Z,26.20
2018-06-28T11:47:28.434Z,26.20
2018-06-28T11:49:57.281Z,26.10
2018-06-28T11:52:26.338Z,26.20
2018-06-28T11:54:55.150Z,26.20
2018-06-28T11:57:24.026Z,26.40
2018-06-28T11:59:52.840Z,26.50
2018-06-28T12:02:21.888Z,26.60
2018-06-28T12:04:50.755Z,26.50
2018-06-28T12:07:19.570Z,26.60
2018-06-28T12:09:49.413Z,26.50
2018-06-28T12:12:18.667Z,26.50
2018-06-28T12:14:47.522Z,26.60
2018-06-28T12:17:16.506Z,26.50
2018-06-28T12:19:45.413Z,26.40
2018-06-28T12:22:14.866Z,26.30
2018-06-28T12:24:43.652Z,26.20
2018-06-28T12:27:12.636Z,26.00
2018-06-28T12:32:10.210Z,25.60
2018-06-28T12:34:39.051Z,25.50
2018-06-28T12:37:07.932Z,25.40
2018-06-28T12:39:36.821Z,25.40
2018-06-28T12:42:05.979Z,25.30
2018-06-28T12:44:34.860Z,25.30
2018-06-28T12:47:41.840Z,25.30
2018-06-28T12:50:10.695Z,25.30
2018-06-28T12:52:44.378Z,25.30
2018-06-28T12:55:14.942Z,25.30
2018-06-28T12:57:43.976Z,25.40
2018-06-28T13:00:13.713Z,25.50
2018-06-28T13:02:42.859Z,25.60
2018-06-28T13:05:12.672Z,25.70
2018-06-28T13:07:41.593Z,25.80
2018-06-28T13:10:11.990Z,25.90
2018-06-28T13:12:40.852Z,26.00
2018-06-28T13:15:10.896Z,26.10
2018-06-28T13:17:40.228Z,26.20
2018-06-28T13:20:09.869Z,26.30
2018-06-28T13:22:39.236Z,26.20
2018-06-28T13:25:09.215Z,26.40
2018-06-28T13:27:38.168Z,26.40
2018-06-28T13:30:08.389Z,26.50
2018-06-28T13:32:37.212Z,26.50
2018-06-28T13:35:06.217Z,26.20
2018-06-28T13:37:35.399Z,26.40
2018-06-28T13:40:04.647Z,26.70
2018-06-28T13:42:33.816Z,26.80
2018-06-28T13:45:02.704Z,26.90
2018-06-28T13:47:31.804Z,27.00
2018-06-28T13:50:00.839Z,27.00
2018-06-28T13:52:29.832Z,27.10
2018-06-28T13:54:58.704Z,27.00
2018-06-28T13:57:27.725Z,26.90
2018-06-28T13:59:56.658Z,26.70
2018-06-28T14:02:25.491Z,26.60
2018-06-28T14:04:54.286Z,26.60
2018-06-28T14:07:23.232Z,26.60
2018-06-28T14:09:52.059Z,26.60
2018-06-28T14:12:21.112Z,26.40
2018-06-28T14:14:49.955Z,26.40
2018-06-28T14:17:18.835Z,26.30
2018-06-28T14:19:47.681Z,26.30
2018-06-28T14:22:16.597Z,26.20
2018-06-28T14:24:45.330Z,26.10
2018-06-28T14:27:14.249Z,26.10
2018-06-28T14:29:43.107Z,26.10
2018-06-28T14:32:12.162Z,26.10
2018-06-28T14:34:40.992Z,26.00
2018-06-28T14:37:09.813Z,26.00
2018-06-28T14:39:38.675Z,26.00
2018-06-28T14:42:07.806Z,26.00
2018-06-28T14:44:36.628Z,26.00
2018-06-28T14:47:05.661Z,26.00
2018-06-28T14:49:34.440Z,25.90
2018-06-28T14:52:03.301Z,26.00
2018-06-28T14:54:32.137Z,26.00
2018-06-28T14:57:01.050Z,26.10
2018-06-28T14:59:29.815Z,26.20
2018-06-28T15:01:58.726Z,26.10
2018-06-28T15:04:27.554Z,26.20
2018-06-28T15:06:56.489Z,26.40
2018-06-28T15:09:25.312Z,26.70
2018-06-28T15:11:54.139Z,27.30
2018-06-28T15:14:22.965Z,27.80
2018-06-28T15:16:52.075Z,27.80
2018-06-28T15:21:49.754Z,27.40
2018-06-28T15:24:18.601Z,27.20
2018-06-28T15:29:16.148Z,27.00
2018-06-28T15:31:45.041Z,26.90
2018-06-28T15:36:42.372Z,26.70
2018-06-28T15:39:11.605Z,26.60
2018-06-28T15:44:10.980Z,26.60
2018-06-28T15:46:39.836Z,31.20
2018-06-28T15:59:05.512Z,35.30
2018-06-28T16:26:19.927Z,31.00
2018-06-28T16:28:49.055Z,27.30
2018-06-28T16:31:18.164Z,27.10
2018-06-28T16:33:47.142Z,27.00
2018-06-28T16:36:16.393Z,26.90
2018-06-28T16:38:45.301Z,26.90
2018-06-28T16:41:14.708Z,26.80
2018-06-28T16:43:43.628Z,26.70
2018-06-28T16:46:12.294Z,26.70
2018-06-28T16:48:41.136Z,26.60
2018-06-28T16:51:10.092Z,26.50
2018-06-28T16:53:38.974Z,26.50
2018-06-28T16:56:08.397Z,26.60
2018-06-28T16:58:37.350Z,26.50
2018-06-28T17:01:06.694Z,26.50
2018-06-28T17:06:04.105Z,26.50
2018-06-28T17:08:32.956Z,26.60
2018-06-28T17:11:02.033Z,26.60
2018-06-28T17:13:30.898Z,26.70
2018-06-28T17:15:59.889Z,26.70
2018-06-28T17:18:28.880Z,26.80
2018-06-28T17:20:58.017Z,26.70
2018-06-28T17:23:26.977Z,26.60
2018-06-28T17:25:55.861Z,26.60
2018-06-28T17:28:24.751Z,26.60
2018-06-28T17:30:53.576Z,26.50
2018-06-28T17:33:22.954Z,26.40
2018-06-28T17:35:51.865Z,26.30
2018-06-28T17:38:21.105Z,26.30
2018-06-28T17:40:50.029Z,26.20
2018-06-28T17:43:19.108Z,26.20
2018-06-28T17:45:47.951Z,26.20
2018-06-28T17:48:16.988Z,26.10
2018-06-28T17:50:45.970Z,26.10
2018-06-28T17:55:43.456Z,26.00
2018-06-28T17:58:12.903Z,26.00
2018-06-28T18:00:41.813Z,26.00
2018-06-28T18:03:10.953Z,26.00
2018-06-28T18:05:39.836Z,25.90
2018-06-28T18:08:08.857Z,25.90
2018-06-28T18:10:37.984Z,25.90
2018-06-28T18:13:06.916Z,25.90
2018-06-28T18:15:36.163Z,25.80
2018-06-28T18:18:05.261Z,25.80
2018-06-28T18:20:34.207Z,25.80
2018-06-28T18:23:03.550Z,25.80
2018-06-28T18:25:32.701Z,25.70
2018-06-28T18:28:01.931Z,25.40
2018-06-28T18:30:31.151Z,25.30
2018-06-28T18:35:29.429Z,25.20
2018-06-28T18:37:58.857Z,25.10
2018-06-28T18:40:32.512Z,25.10
2018-06-28T18:43:05.041Z,25.00
2018-06-28T18:45:34.938Z,24.90
2018-06-28T18:48:04.032Z,25.00
2018-06-28T18:53:01.681Z,24.90
2018-06-28T18:55:31.925Z,24.70
2018-06-28T18:58:00.825Z,24.50
2018-06-28T19:00:29.868Z,24.50
2018-06-28T19:02:58.946Z,24.50
2018-06-28T19:05:27.825Z,24.60
2018-06-28T19:07:57.041Z,24.40
2018-06-28T19:10:59.927Z,24.50
2018-06-28T19:13:29.040Z,24.40
2018-06-28T19:16:03.541Z,24.40
2018-06-28T19:18:32.542Z,24.40
2018-06-28T19:21:07.088Z,24.50
2018-06-28T19:23:41.351Z,24.40
2018-06-28T19:26:10.215Z,24.50
2018-06-28T19:28:39.283Z,24.40
2018-06-28T19:31:13.605Z,24.30
2018-06-28T19:33:43.693Z,24.10
2018-06-28T19:36:12.726Z,24.20
2018-06-28T19:38:47.128Z,24.30
2018-06-28T19:41:21.491Z,24.40
2018-06-28T19:43:50.522Z,24.40
2018-06-28T19:46:19.354Z,24.20
2018-06-28T19:48:48.482Z,24.30
2018-06-28T19:51:22.776Z,24.30
2018-06-28T19:53:52.257Z,24.20
2018-06-28T19:56:27.837Z,24.20
2018-06-28T19:58:57.005Z,24.20
2018-06-28T20:01:31.346Z,24.10
2018-06-28T20:04:05.707Z,24.10
2018-06-28T20:06:35.581Z,24.10
2018-06-28T20:09:07.201Z,24.10
2018-06-28T20:11:36.329Z,24.10
2018-06-28T20:14:10.990Z,24.00
2018-06-28T20:16:45.213Z,24.10
2018-06-28T20:19:19.432Z,23.90
2018-06-28T20:21:48.324Z,23.80
2018-06-28T20:24:17.441Z,23.90
2018-06-28T20:26:52.142Z,24.00
2018-06-28T20:29:26.332Z,24.00
2018-06-28T20:32:00.588Z,23.90
2018-06-28T20:34:29.741Z,23.90
2018-06-28T20:36:58.616Z,23.90
2018-06-28T20:39:27.524Z,23.90
2018-06-28T20:41:56.334Z,23.80
2018-06-28T20:44:25.317Z,23.70
2018-06-28T20:46:54.457Z,23.70
2018-06-28T20:49:23.304Z,23.80
2018-06-28T20:51:52.896Z,23.80
2018-06-28T20:54:21.884Z,23.70
2018-06-28T20:56:50.860Z,23.80
2018-06-28T20:59:20.087Z,23.80
2018-06-28T21:01:48.968Z,23.70
2018-06-28T21:04:18.203Z,23.80
2018-06-28T21:06:47.297Z,23.70
2018-06-28T21:09:16.336Z,23.60
2018-06-28T21:11:45.284Z,23.60
2018-06-28T21:14:14.340Z,23.60
2018-06-28T21:16:45.785Z,23.60
2018-06-28T21:19:14.669Z,23.70
2018-06-28T21:21:45.562Z,23.70
2018-06-28T21:24:15.579Z,23.70
2018-06-28T21:26:45.025Z,23.80
2018-06-28T21:29:15.769Z,23.70
2018-06-28T21:31:46.231Z,23.60
